College Station, TX (77840)

9:23 AM CST on December 11, 2016 (GMT -0600)
Elk Meadows | | Change Station

Elev 8698 ft 38.10 °N, 107.76 °W | Updated 6 days ago

Thunderstorm
Thunderstorm
75 °F
Feels Like 75 °F
N
14
Wind Variable Wind from SSE
Gusts 21 mph

Today
High -- | Low -- °F
--% Chance of Precip.
Yesterday
High -- | Low -- °F
Precip. -- in
Pressure 30.03 in
Visibility 8.0 miles
Clouds Overcast 800 ft
Dew Point 74 °F
Humidity 96%
Rainfall in
Snow Depth Not available.
7:12 AM 5:24 PM
Waxing Gibbous, 92% visible
METAR KCLL 111453Z 17008KT 8SM -RA OVC008 17/16 A3004 RMK AO2 RAB04E13B48 CIG 006V010 SLP169 P0000 60000 T01720161 50003
Pressure 30.03 in
Visibility 8.0 miles
Clouds Overcast 800 ft
Dew Point 74 °F
Humidity 96%
Rainfall in
Snow Depth Not available.
7:12 AM 5:24 PM
Waxing Gibbous, 92% visible
METAR KCLL 111453Z 17008KT 8SM -RA OVC008 17/16 A3004 RMK AO2 RAB04E13B48 CIG 006V010 SLP169 P0000 60000 T01720161 50003

10-Day Weather Forecast

Almanac

Astronomy

Dec. 11, 2016 Rise Set
Actual Time
Civil Twilight
Nautical Twilight
Astronomical Twilight
Moon
Length of Visible Light
Length of Day
Tomorrow will be .
, % of the Moon is Illuminated

Today's Extremes

State Highs State Lows

Community

WunderPhotos

Upload Photos

1,956,725 photos uploaded!

WunderBlog® & News

Nearby

Air Quality

  Air Quality AQ Index Pollutant
Not available.

Snow Depth

Station Depth Elevation

Earthquake Activity

City Distance Mag. Time & Date
Minimum magnitude displayed is 2.5.

Coastal Water Temperatures

Place Temperature

Stations

Nearby Weather Stations

Station Location Temp. Windchill Dew Point Humidity Wind Precip. Elev Updated Type
                   

Watches & Warnings

There are currently no watches in effect.